sensor_id;sensor_type;location;lat;lon;timestamp;pressure;altitude;pressure_sealevel;temperature;humidity
41515;BME280;27247;48.020;16.720;2023-04-05T00:05:55;100487.31;;;-0.94;63.92
41515;BME280;27247;48.020;16.720;2023-04-05T00:10:06;100474.25;;;-1.12;64.72
41515;BME280;27247;48.020;16.720;2023-04-05T00:14:16;100482.91;;;-0.94;64.91
41515;BME280;27247;48.020;16.720;2023-04-05T00:18:27;100468.19;;;-0.97;64.38
41515;BME280;27247;48.020;16.720;2023-04-05T00:22:43;100472.94;;;-1.03;64.46
41515;BME280;27247;48.020;16.720;2023-04-05T00:26:53;100465.06;;;-1.03;64.38
41515;BME280;27247;48.020;16.720;2023-04-05T00:31:05;100471.06;;;-1.17;64.33
41515;BME280;27247;48.020;16.720;2023-04-05T00:35:16;100464.22;;;-1.04;64.68
41515;BME280;27247;48.020;16.720;2023-04-05T00:39:26;100468.09;;;-0.95;64.61
41515;BME280;27247;48.020;16.720;2023-04-05T00:43:37;100461.41;;;-1.16;64.78
41515;BME280;27247;48.020;16.720;2023-04-05T00:47:48;100457.44;;;-0.92;64.26
41515;BME280;27247;48.020;16.720;2023-04-05T00:51:58;100456.50;;;-0.91;64.18
41515;BME280;27247;48.020;16.720;2023-04-05T00:56:09;100462.75;;;-0.93;64.59
41515;BME280;27247;48.020;16.720;2023-04-05T01:00:22;100453.28;;;-0.96;64.64
41515;BME280;27247;48.020;16.720;2023-04-05T01:04:34;100452.44;;;-1.12;64.88
41515;BME280;27247;48.020;16.720;2023-04-05T01:09:06;100451.84;;;-1.17;64.65
41515;BME280;27247;48.020;16.720;2023-04-05T01:13:17;100445.84;;;-1.04;64.93
41515;BME280;27247;48.020;16.720;2023-04-05T01:17:29;100450.50;;;-1.09;64.77
41515;BME280;27247;48.020;16.720;2023-04-05T01:22:00;100447.03;;;-1.09;64.90
41515;BME280;27247;48.020;16.720;2023-04-05T01:35:49;100443.56;;;-0.94;64.27
41515;BME280;27247;48.020;16.720;2023-04-05T01:40:01;100442.44;;;-1.06;64.49
41515;BME280;27247;48.020;16.720;2023-04-05T01:44:14;100431.13;;;-1.06;64.22
41515;BME280;27247;48.020;16.720;2023-04-05T01:48:24;100433.72;;;-1.06;64.40
41515;BME280;27247;48.020;16.720;2023-04-05T01:52:35;100437.91;;;-1.18;64.29
41515;BME280;27247;48.020;16.720;2023-04-05T01:56:45;100438.91;;;-1.05;64.55
41515;BME280;27247;48.020;16.720;2023-04-05T02:00:56;100429.50;;;-1.09;64.59
41515;BME280;27247;48.020;16.720;2023-04-05T02:05:06;100438.56;;;-1.14;64.65
41515;BME280;27247;48.020;16.720;2023-04-05T02:09:17;100439.59;;;-1.17;64.92
41515;BME280;27247;48.020;16.720;2023-04-05T02:13:27;100438.56;;;-1.14;64.84
41515;BME280;27247;48.020;16.720;2023-04-05T02:17:38;100427.50;;;-1.19;64.85
41515;BME280;27247;48.020;16.720;2023-04-05T02:21:49;100429.44;;;-1.23;65.09
41515;BME280;27247;48.020;16.720;2023-04-05T02:25:59;100428.28;;;-1.33;65.11
41515;BME280;27247;48.020;16.720;2023-04-05T02:30:10;100430.97;;;-1.35;65.62
41515;BME280;27247;48.020;16.720;2023-04-05T02:34:23;100435.53;;;-1.38;65.49
41515;BME280;27247;48.020;16.720;2023-04-05T02:38:33;100426.84;;;-1.39;65.69
41515;BME280;27247;48.020;16.720;2023-04-05T02:42:44;100420.66;;;-1.38;65.86
41515;BME280;27247;48.020;16.720;2023-04-05T02:46:54;100422.78;;;-1.44;65.50
41515;BME280;27247;48.020;16.720;2023-04-05T02:51:04;100432.34;;;-1.43;65.95
41515;BME280;27247;48.020;16.720;2023-04-05T02:55:15;100425.50;;;-1.46;65.99
41515;BME280;27247;48.020;16.720;2023-04-05T02:59:25;100427.50;;;-1.51;66.00
41515;BME280;27247;48.020;16.720;2023-04-05T03:03:36;100429.22;;;-1.66;66.11
41515;BME280;27247;48.020;16.720;2023-04-05T03:07:47;100426.25;;;-1.59;66.23
41515;BME280;27247;48.020;16.720;2023-04-05T03:12:00;100418.13;;;-1.55;66.30
41515;BME280;27247;48.020;16.720;2023-04-05T03:16:10;100417.28;;;-1.55;66.16
41515;BME280;27247;48.020;16.720;2023-04-05T03:20:21;100417.78;;;-1.49;66.05
41515;BME280;27247;48.020;16.720;2023-04-05T03:24:32;100417.38;;;-1.41;65.81
41515;BME280;27247;48.020;16.720;2023-04-05T03:28:42;100421.00;;;-1.44;65.79
41515;BME280;27247;48.020;16.720;2023-04-05T03:32:53;100421.59;;;-1.39;65.73
41515;BME280;27247;48.020;16.720;2023-04-05T03:37:06;100427.84;;;-1.41;65.90
41515;BME280;27247;48.020;16.720;2023-04-05T03:41:16;100419.16;;;-1.42;65.93
41515;BME280;27247;48.020;16.720;2023-04-05T03:45:27;100421.78;;;-1.42;65.69
41515;BME280;27247;48.020;16.720;2023-04-05T03:49:38;100415.59;;;-1.41;66.08
41515;BME280;27247;48.020;16.720;2023-04-05T03:53:49;100417.53;;;-1.44;66.00
41515;BME280;27247;48.020;16.720;2023-04-05T03:58:00;100425.31;;;-1.43;66.21
41515;BME280;27247;48.020;16.720;2023-04-05T04:02:10;100425.50;;;-1.46;66.30
41515;BME280;27247;48.020;16.720;2023-04-05T04:06:21;100428.19;;;-1.47;66.29
41515;BME280;27247;48.020;16.720;2023-04-05T04:10:33;100423.22;;;-1.52;66.43
41515;BME280;27247;48.020;16.720;2023-04-05T04:14:44;100428.09;;;-1.46;66.71
41515;BME280;27247;48.020;16.720;2023-04-05T04:18:54;100418.97;;;-1.54;66.64
41515;BME280;27247;48.020;16.720;2023-04-05T04:23:05;100423.03;;;-1.49;66.38
41515;BME280;27247;48.020;16.720;2023-04-05T04:27:19;100424.81;;;-1.49;66.54
41515;BME280;27247;48.020;16.720;2023-04-05T04:31:29;100418.06;;;-1.53;66.43
41515;BME280;27247;48.020;16.720;2023-04-05T04:35:42;100419.75;;;-1.52;66.61
41515;BME280;27247;48.020;16.720;2023-04-05T04:39:56;100424.97;;;-1.52;66.71
41515;BME280;27247;48.020;16.720;2023-04-05T04:44:06;100424.97;;;-1.52;66.79
41515;BME280;27247;48.020;16.720;2023-04-05T04:48:16;100427.75;;;-1.71;66.97
41515;BME280;27247;48.020;16.720;2023-04-05T04:52:27;100427.34;;;-1.64;67.15
41515;BME280;27247;48.020;16.720;2023-04-05T04:56:37;100429.78;;;-1.61;67.37
41515;BME280;27247;48.020;16.720;2023-04-05T05:00:48;100433.69;;;-1.52;66.96
41515;BME280;27247;48.020;16.720;2023-04-05T05:04:58;100434.94;;;-1.43;66.94
41515;BME280;27247;48.020;16.720;2023-04-05T05:09:08;100431.50;;;-1.44;66.79
41515;BME280;27247;48.020;16.720;2023-04-05T05:13:19;100435.88;;;-1.44;66.92
41515;BME280;27247;48.020;16.720;2023-04-05T05:17:29;100438.00;;;-1.35;66.77
41515;BME280;27247;48.020;16.720;2023-04-05T05:21:41;100431.41;;;-1.26;66.66
41515;BME280;27247;48.020;16.720;2023-04-05T05:25:59;100441.63;;;-1.22;67.10
41515;BME280;27247;48.020;16.720;2023-04-05T05:30:10;100437.56;;;-1.12;66.49
41515;BME280;27247;48.020;16.720;2023-04-05T05:34:21;100443.28;;;-1.05;66.88
41515;BME280;27247;48.020;16.720;2023-04-05T05:38:31;100440.94;;;-0.94;66.71
41515;BME280;27247;48.020;16.720;2023-04-05T05:42:41;100445.47;;;-0.82;66.56
41515;BME280;27247;48.020;16.720;2023-04-05T05:46:51;100444.84;;;-0.71;66.43
41515;BME280;27247;48.020;16.720;2023-04-05T05:51:02;100436.75;;;-0.52;65.99
41515;BME280;27247;48.020;16.720;2023-04-05T05:55:13;100438.81;;;-0.43;65.22
41515;BME280;27247;48.020;16.720;2023-04-05T05:59:23;100433.41;;;-0.26;64.58
41515;BME280;27247;48.020;16.720;2023-04-05T06:03:34;100436.03;;;-0.12;64.26
41515;BME280;27247;48.020;16.720;2023-04-05T06:07:44;100432.75;;;-0.01;63.80
41515;BME280;27247;48.020;16.720;2023-04-05T06:11:55;100428.75;;;0.08;63.37
41515;BME280;27247;48.020;16.720;2023-04-05T06:16:05;100443.13;;;0.16;62.81
41515;BME280;27247;48.020;16.720;2023-04-05T06:20:16;100436.28;;;0.14;62.99
41515;BME280;27247;48.020;16.720;2023-04-05T06:24:26;100431.38;;;0.22;62.61
41515;BME280;27247;48.020;16.720;2023-04-05T06:28:40;100430.72;;;0.32;62.62
41515;BME280;27247;48.020;16.720;2023-04-05T06:32:51;100432.75;;;0.42;61.69
41515;BME280;27247;48.020;16.720;2023-04-05T06:37:03;100446.63;;;0.58;61.48
41515;BME280;27247;48.020;16.720;2023-04-05T06:41:13;100448.19;;;0.75;61.36
41515;BME280;27247;48.020;16.720;2023-04-05T06:45:24;100440.78;;;0.94;61.51
41515;BME280;27247;48.020;16.720;2023-04-05T06:49:35;100449.44;;;1.23;60.49
41515;BME280;27247;48.020;16.720;2023-04-05T06:53:45;100454.53;;;1.39;60.30
41515;BME280;27247;48.020;16.720;2023-04-05T06:57:56;100448.47;;;1.64;60.34
41515;BME280;27247;48.020;16.720;2023-04-05T07:02:06;100453.84;;;1.87;59.50
41515;BME280;27247;48.020;16.720;2023-04-05T07:06:16;100455.34;;;2.17;58.57
41515;BME280;27247;48.020;16.720;2023-04-05T07:10:27;100442.78;;;2.33;58.30
41515;BME280;27247;48.020;16.720;2023-04-05T07:14:37;100443.81;;;2.43;58.18
41515;BME280;27247;48.020;16.720;2023-04-05T07:18:48;100436.94;;;2.53;57.47
41515;BME280;27247;48.020;16.720;2023-04-05T07:22:58;100441.19;;;2.80;58.01
41515;BME280;27247;48.020;16.720;2023-04-05T07:27:09;100446.00;;;2.86;56.67
41515;BME280;27247;48.020;16.720;2023-04-05T07:31:19;100445.38;;;2.82;57.46
41515;BME280;27247;48.020;16.720;2023-04-05T07:35:30;100449.78;;;2.95;57.21
41515;BME280;27247;48.020;16.720;2023-04-05T07:39:40;100437.06;;;3.00;56.91
41515;BME280;27247;48.020;16.720;2023-04-05T07:43:50;100447.03;;;2.96;56.62
41515;BME280;27247;48.020;16.720;2023-04-05T07:48:01;100442.34;;;3.12;56.64
41515;BME280;27247;48.020;16.720;2023-04-05T07:52:11;100426.69;;;3.09;57.09
41515;BME280;27247;48.020;16.720;2023-04-05T07:56:23;100435.44;;;3.34;56.57
41515;BME280;27247;48.020;16.720;2023-04-05T08:00:33;100426.91;;;3.30;55.64
41515;BME280;27247;48.020;16.720;2023-04-05T08:04:44;100428.97;;;3.38;56.01
41515;BME280;27247;48.020;16.720;2023-04-05T08:08:54;100429.16;;;3.59;55.27
41515;BME280;27247;48.020;16.720;2023-04-05T08:13:05;100429.56;;;3.88;54.66
41515;BME280;27247;48.020;16.720;2023-04-05T08:17:17;100421.41;;;4.02;55.35
41515;BME280;27247;48.020;16.720;2023-04-05T08:21:28;100413.28;;;4.27;54.20
41515;BME280;27247;48.020;16.720;2023-04-05T08:25:38;100418.31;;;4.41;53.34
41515;BME280;27247;48.020;16.720;2023-04-05T08:29:49;100416.91;;;4.80;53.49
41515;BME280;27247;48.020;16.720;2023-04-05T08:33:59;100409.75;;;5.03;53.21
41515;BME280;27247;48.020;16.720;2023-04-05T08:38:09;100407.69;;;5.39;52.42
41515;BME280;27247;48.020;16.720;2023-04-05T08:42:35;100398.56;;;5.53;52.00
41515;BME280;27247;48.020;16.720;2023-04-05T08:46:47;100407.38;;;5.53;52.72
41515;BME280;27247;48.020;16.720;2023-04-05T08:50:59;100394.75;;;5.66;52.31
41515;BME280;27247;48.020;16.720;2023-04-05T08:55:10;100382.13;;;5.80;52.50
41515;BME280;27247;48.020;16.720;2023-04-05T08:59:20;100397.97;;;6.21;51.56
41515;BME280;27247;48.020;16.720;2023-04-05T09:03:34;100390.13;;;6.10;50.96
41515;BME280;27247;48.020;16.720;2023-04-05T09:07:48;100380.47;;;6.09;51.38
41515;BME280;27247;48.020;16.720;2023-04-05T09:11:59;100393.53;;;5.50;51.07
41515;BME280;27247;48.020;16.720;2023-04-05T09:16:10;100384.34;;;5.74;52.12
41515;BME280;27247;48.020;16.720;2023-04-05T09:20:22;100376.88;;;6.20;51.92
41515;BME280;27247;48.020;16.720;2023-04-05T09:24:40;100378.22;;;6.35;51.19
41515;BME280;27247;48.020;16.720;2023-04-05T09:28:51;100367.59;;;6.35;51.48
41515;BME280;27247;48.020;16.720;2023-04-05T09:33:03;100368.44;;;6.05;50.82
41515;BME280;27247;48.020;16.720;2023-04-05T09:41:25;100359.56;;;6.16;52.09
41515;BME280;27247;48.020;16.720;2023-04-05T09:45:40;100356.44;;;6.41;50.77
41515;BME280;27247;48.020;16.720;2023-04-05T09:49:51;100346.81;;;5.79;50.09
41515;BME280;27247;48.020;16.720;2023-04-05T09:54:04;100347.72;;;5.89;50.63
41515;BME280;27247;48.020;16.720;2023-04-05T09:58:19;100334.38;;;6.50;50.36
41515;BME280;27247;48.020;16.720;2023-04-05T10:02:38;100324.78;;;6.68;51.05
41515;BME280;27247;48.020;16.720;2023-04-05T10:06:48;100322.81;;;6.70;50.29
41515;BME280;27247;48.020;16.720;2023-04-05T10:11:00;100319.31;;;6.60;48.75
41515;BME280;27247;48.020;16.720;2023-04-05T10:15:15;100319.72;;;6.56;47.18
41515;BME280;27247;48.020;16.720;2023-04-05T10:19:32;100308.00;;;6.87;47.00
41515;BME280;27247;48.020;16.720;2023-04-05T10:23:45;100305.34;;;6.87;47.94
41515;BME280;27247;48.020;16.720;2023-04-05T10:28:03;100315.69;;;7.00;46.39
41515;BME280;27247;48.020;16.720;2023-04-05T10:32:20;100313.72;;;7.12;48.13
41515;BME280;27247;48.020;16.720;2023-04-05T10:36:36;100302.38;;;7.29;45.40
41515;BME280;27247;48.020;16.720;2023-04-05T10:40:53;100297.47;;;7.15;45.84
41515;BME280;27247;48.020;16.720;2023-04-05T10:45:05;100297.06;;;7.19;47.33
41515;BME280;27247;48.020;16.720;2023-04-05T10:49:41;100302.84;;;7.61;46.34
41515;BME280;27247;48.020;16.720;2023-04-05T10:53:53;100297.81;;;7.58;45.77
41515;BME280;27247;48.020;16.720;2023-04-05T10:58:05;100283.50;;;8.34;45.55
41515;BME280;27247;48.020;16.720;2023-04-05T11:02:16;100289.53;;;7.98;44.43
41515;BME280;27247;48.020;16.720;2023-04-05T11:10:38;100276.47;;;7.41;46.43
41515;BME280;27247;48.020;16.720;2023-04-05T11:14:49;100271.25;;;8.13;45.51
41515;BME280;27247;48.020;16.720;2023-04-05T11:18:59;100269.78;;;7.74;45.38
41515;BME280;27247;48.020;16.720;2023-04-05T11:23:11;100264.09;;;7.86;45.41
41515;BME280;27247;48.020;16.720;2023-04-05T11:27:25;100252.78;;;8.29;45.12
41515;BME280;27247;48.020;16.720;2023-04-05T11:31:56;100260.41;;;7.97;44.04
41515;BME280;27247;48.020;16.720;2023-04-05T11:36:07;100260.22;;;8.26;44.56
41515;BME280;27247;48.020;16.720;2023-04-05T11:44:47;100240.22;;;8.67;45.16
41515;BME280;27247;48.020;16.720;2023-04-05T11:48:57;100249.84;;;7.50;44.94
41515;BME280;27247;48.020;16.720;2023-04-05T11:53:12;100257.22;;;7.10;46.81
41515;BME280;27247;48.020;16.720;2023-04-05T11:57:23;100249.78;;;7.13;46.01
41515;BME280;27247;48.020;16.720;2023-04-05T12:01:34;100241.78;;;7.97;45.35
41515;BME280;27247;48.020;16.720;2023-04-05T12:05:48;100231.91;;;8.07;43.78
41515;BME280;27247;48.020;16.720;2023-04-05T12:10:07;100238.22;;;7.51;44.27
41515;BME280;27247;48.020;16.720;2023-04-05T12:14:22;100233.56;;;7.63;45.60
41515;BME280;27247;48.020;16.720;2023-04-05T12:18:35;100219.38;;;8.17;44.30
41515;BME280;27247;48.020;16.720;2023-04-05T12:22:46;100224.19;;;8.31;45.41
41515;BME280;27247;48.020;16.720;2023-04-05T12:26:57;100220.44;;;8.70;43.83
41515;BME280;27247;48.020;16.720;2023-04-05T12:31:09;100219.97;;;8.74;43.18
41515;BME280;27247;48.020;16.720;2023-04-05T12:35:22;100213.53;;;8.41;42.37
41515;BME280;27247;48.020;16.720;2023-04-05T12:39:40;100199.88;;;9.06;43.38
41515;BME280;27247;48.020;16.720;2023-04-05T12:43:51;100201.22;;;9.36;42.34
41515;BME280;27247;48.020;16.720;2023-04-05T12:52:19;100198.69;;;8.56;43.77
41515;BME280;27247;48.020;16.720;2023-04-05T12:56:30;100199.22;;;8.86;43.09
41515;BME280;27247;48.020;16.720;2023-04-05T13:00:42;100205.44;;;8.51;43.76
41515;BME280;27247;48.020;16.720;2023-04-05T13:04:52;100198.16;;;8.25;43.77
41515;BME280;27247;48.020;16.720;2023-04-05T13:09:03;100198.28;;;8.51;43.00
41515;BME280;27247;48.020;16.720;2023-04-05T13:13:17;100189.00;;;8.99;43.68
41515;BME280;27247;48.020;16.720;2023-04-05T13:17:29;100184.63;;;9.50;42.62
41515;BME280;27247;48.020;16.720;2023-04-05T13:21:40;100187.56;;;10.39;41.97
41515;BME280;27247;48.020;16.720;2023-04-05T13:25:50;100192.59;;;9.42;41.86
41515;BME280;27247;48.020;16.720;2023-04-05T13:30:00;100178.50;;;9.32;43.09
41515;BME280;27247;48.020;16.720;2023-04-05T13:34:11;100185.66;;;10.15;41.33
41515;BME280;27247;48.020;16.720;2023-04-05T13:38:21;100184.44;;;10.52;40.93
41515;BME280;27247;48.020;16.720;2023-04-05T13:42:31;100182.78;;;9.16;41.39
41515;BME280;27247;48.020;16.720;2023-04-05T13:46:42;100186.13;;;8.04;43.02
41515;BME280;27247;48.020;16.720;2023-04-05T13:50:52;100186.00;;;8.05;44.20
41515;BME280;27247;48.020;16.720;2023-04-05T13:55:03;100166.69;;;8.74;43.45
41515;BME280;27247;48.020;16.720;2023-04-05T13:59:13;100171.78;;;9.19;42.10
41515;BME280;27247;48.020;16.720;2023-04-05T14:03:25;100161.09;;;9.45;42.01
41515;BME280;27247;48.020;16.720;2023-04-05T14:07:36;100158.94;;;9.99;41.37
41515;BME280;27247;48.020;16.720;2023-04-05T14:11:46;100147.81;;;9.62;41.69
41515;BME280;27247;48.020;16.720;2023-04-05T14:15:56;100168.38;;;9.69;42.24
41515;BME280;27247;48.020;16.720;2023-04-05T14:20:07;100166.47;;;8.93;42.42
41515;BME280;27247;48.020;16.720;2023-04-05T14:24:18;100169.41;;;8.11;43.55
41515;BME280;27247;48.020;16.720;2023-04-05T14:28:28;100169.63;;;8.00;43.74
41515;BME280;27247;48.020;16.720;2023-04-05T14:32:38;100161.66;;;8.71;42.88
41515;BME280;27247;48.020;16.720;2023-04-05T14:36:49;100155.75;;;9.11;43.21
41515;BME280;27247;48.020;16.720;2023-04-05T14:40:59;100157.97;;;8.90;42.52
41515;BME280;27247;48.020;16.720;2023-04-05T14:45:10;100166.03;;;8.37;43.01
41515;BME280;27247;48.020;16.720;2023-04-05T14:49:20;100174.88;;;7.92;43.78
41515;BME280;27247;48.020;16.720;2023-04-05T14:53:31;100184.31;;;7.59;44.24
41515;BME280;27247;48.020;16.720;2023-04-05T14:57:41;100183.19;;;7.61;43.90
41515;BME280;27247;48.020;16.720;2023-04-05T15:01:52;100186.88;;;7.51;44.15
41515;BME280;27247;48.020;16.720;2023-04-05T15:06:03;100175.50;;;7.58;44.41
41515;BME280;27247;48.020;16.720;2023-04-05T15:10:14;100174.00;;;7.74;43.60
41515;BME280;27247;48.020;16.720;2023-04-05T15:14:24;100184.38;;;7.94;44.41
41515;BME280;27247;48.020;16.720;2023-04-05T15:18:34;100185.22;;;8.13;43.97
41515;BME280;27247;48.020;16.720;2023-04-05T15:22:45;100188.63;;;8.32;44.37
41515;BME280;27247;48.020;16.720;2023-04-05T15:26:55;100189.16;;;7.91;43.91
41515;BME280;27247;48.020;16.720;2023-04-05T15:31:11;100188.78;;;7.58;44.01
41515;BME280;27247;48.020;16.720;2023-04-05T15:35:21;100192.22;;;7.68;44.34
41515;BME280;27247;48.020;16.720;2023-04-05T15:39:31;100192.19;;;7.51;44.86
41515;BME280;27247;48.020;16.720;2023-04-05T15:43:42;100191.44;;;7.21;45.36
41515;BME280;27247;48.020;16.720;2023-04-05T15:47:52;100194.19;;;6.92;45.77
41515;BME280;27247;48.020;16.720;2023-04-05T15:52:03;100197.56;;;6.75;46.68
41515;BME280;27247;48.020;16.720;2023-04-05T15:56:13;100198.44;;;6.66;46.64
41515;BME280;27247;48.020;16.720;2023-04-05T16:00:24;100199.94;;;6.78;46.68
41515;BME280;27247;48.020;16.720;2023-04-05T16:04:36;100198.97;;;6.69;46.60
41515;BME280;27247;48.020;16.720;2023-04-05T16:08:48;100204.16;;;6.42;46.78
41515;BME280;27247;48.020;16.720;2023-04-05T16:12:58;100210.16;;;6.54;47.34
41515;BME280;27247;48.020;16.720;2023-04-05T16:17:09;100216.47;;;6.53;46.87
41515;BME280;27247;48.020;16.720;2023-04-05T16:21:19;100205.72;;;6.45;47.07
41515;BME280;27247;48.020;16.720;2023-04-05T16:25:30;100214.66;;;6.34;46.57
41515;BME280;27247;48.020;16.720;2023-04-05T16:29:40;100207.91;;;6.20;46.81
41515;BME280;27247;48.020;16.720;2023-04-05T16:33:50;100205.09;;;6.02;46.99
41515;BME280;27247;48.020;16.720;2023-04-05T16:38:02;100214.31;;;6.08;47.51
41515;BME280;27247;48.020;16.720;2023-04-05T16:42:13;100215.28;;;6.07;47.75
41515;BME280;27247;48.020;16.720;2023-04-05T16:46:23;100219.47;;;6.00;47.34
41515;BME280;27247;48.020;16.720;2023-04-05T16:50:34;100219.75;;;5.97;47.61
41515;BME280;27247;48.020;16.720;2023-04-05T16:54:44;100226.44;;;5.91;47.79
41515;BME280;27247;48.020;16.720;2023-04-05T16:58:55;100228.09;;;5.92;47.82
41515;BME280;27247;48.020;16.720;2023-04-05T17:03:06;100223.72;;;5.82;47.82
41515;BME280;27247;48.020;16.720;2023-04-05T17:07:16;100218.97;;;5.75;48.83
41515;BME280;27247;48.020;16.720;2023-04-05T17:11:27;100221.44;;;5.67;48.66
41515;BME280;27247;48.020;16.720;2023-04-05T17:15:37;100233.25;;;5.54;49.39
41515;BME280;27247;48.020;16.720;2023-04-05T17:19:47;100227.66;;;5.47;49.72
41515;BME280;27247;48.020;16.720;2023-04-05T17:23:58;100220.63;;;5.36;49.49
41515;BME280;27247;48.020;16.720;2023-04-05T17:28:08;100226.50;;;5.40;49.57
41515;BME280;27247;48.020;16.720;2023-04-05T17:32:19;100237.63;;;5.34;49.79
41515;BME280;27247;48.020;16.720;2023-04-05T17:36:29;100233.97;;;5.25;49.64
41515;BME280;27247;48.020;16.720;2023-04-05T17:40:40;100243.66;;;5.15;49.44
41515;BME280;27247;48.020;16.720;2023-04-05T17:44:50;100240.16;;;5.14;49.27
41515;BME280;27247;48.020;16.720;2023-04-05T17:49:01;100252.31;;;5.17;49.21
41515;BME280;27247;48.020;16.720;2023-04-05T17:53:13;100252.31;;;5.17;49.35
41515;BME280;27247;48.020;16.720;2023-04-05T17:57:24;100247.84;;;5.18;49.66
41515;BME280;27247;48.020;16.720;2023-04-05T18:01:34;100257.47;;;5.19;49.88
41515;BME280;27247;48.020;16.720;2023-04-05T18:05:50;100260.50;;;5.14;49.63
41515;BME280;27247;48.020;16.720;2023-04-05T18:10:05;100264.00;;;5.14;50.26
41515;BME280;27247;48.020;16.720;2023-04-05T18:14:16;100269.44;;;5.13;49.70
41515;BME280;27247;48.020;16.720;2023-04-05T18:18:26;100278.16;;;5.04;50.24
41515;BME280;27247;48.020;16.720;2023-04-05T18:22:37;100273.25;;;4.99;50.39
41515;BME280;27247;48.020;16.720;2023-04-05T18:26:48;100280.72;;;4.94;50.35
41515;BME280;27247;48.020;16.720;2023-04-05T18:30:58;100289.66;;;4.93;50.84
41515;BME280;27247;48.020;16.720;2023-04-05T18:35:09;100295.84;;;4.82;51.13
41515;BME280;27247;48.020;16.720;2023-04-05T18:39:19;100301.66;;;4.76;51.45
41515;BME280;27247;48.020;16.720;2023-04-05T18:43:30;100303.25;;;4.68;51.39
41515;BME280;27247;48.020;16.720;2023-04-05T18:47:40;100300.47;;;4.69;51.74
41515;BME280;27247;48.020;16.720;2023-04-05T18:51:50;100305.50;;;4.72;51.62
41515;BME280;27247;48.020;16.720;2023-04-05T18:56:01;100312.03;;;4.68;51.63
41515;BME280;27247;48.020;16.720;2023-04-05T19:00:12;100315.13;;;4.73;51.67
41515;BME280;27247;48.020;16.720;2023-04-05T19:04:22;100316.47;;;4.68;51.58
41515;BME280;27247;48.020;16.720;2023-04-05T19:08:32;100307.94;;;4.64;51.93
41515;BME280;27247;48.020;16.720;2023-04-05T19:12:43;100311.47;;;4.54;52.04
41515;BME280;27247;48.020;16.720;2023-04-05T19:16:53;100312.66;;;4.61;51.90
41515;BME280;27247;48.020;16.720;2023-04-05T19:21:04;100311.81;;;4.60;51.58
41515;BME280;27247;48.020;16.720;2023-04-05T19:25:14;100317.03;;;4.51;52.10
41515;BME280;27247;48.020;16.720;2023-04-05T19:29:25;100315.63;;;4.35;52.18
41515;BME280;27247;48.020;16.720;2023-04-05T19:33:35;100319.38;;;4.22;52.82
41515;BME280;27247;48.020;16.720;2023-04-05T19:37:46;100315.41;;;4.27;52.56
41515;BME280;27247;48.020;16.720;2023-04-05T19:41:56;100311.69;;;4.19;53.00
41515;BME280;27247;48.020;16.720;2023-04-05T19:46:07;100313.63;;;4.16;52.95
41515;BME280;27247;48.020;16.720;2023-04-05T19:54:41;100305.91;;;4.02;53.24
41515;BME280;27247;48.020;16.720;2023-04-05T19:59:01;100309.53;;;3.79;53.56
41515;BME280;27247;48.020;16.720;2023-04-05T20:03:35;100297.66;;;3.73;54.53
41515;BME280;27247;48.020;16.720;2023-04-05T20:07:46;100305.47;;;3.64;54.72
41515;BME280;27247;48.020;16.720;2023-04-05T20:12:02;100312.78;;;3.49;54.73
41515;BME280;27247;48.020;16.720;2023-04-05T20:16:13;100307.59;;;3.36;55.10
41515;BME280;27247;48.020;16.720;2023-04-05T20:20:24;100302.66;;;3.20;55.88
41515;BME280;27247;48.020;16.720;2023-04-05T20:24:37;100308.41;;;3.14;56.35
41515;BME280;27247;48.020;16.720;2023-04-05T20:28:49;100292.56;;;3.14;56.47
41515;BME280;27247;48.020;16.720;2023-04-05T20:33:05;100294.97;;;3.17;56.73
41515;BME280;27247;48.020;16.720;2023-04-05T20:37:15;100294.25;;;3.27;56.08
41515;BME280;27247;48.020;16.720;2023-04-05T20:41:26;100298.44;;;3.18;56.40
41515;BME280;27247;48.020;16.720;2023-04-05T20:45:37;100296.09;;;3.02;57.09
41515;BME280;27247;48.020;16.720;2023-04-05T20:49:47;100303.25;;;2.89;57.37
41515;BME280;27247;48.020;16.720;2023-04-05T20:53:59;100302.38;;;2.77;58.27
41515;BME280;27247;48.020;16.720;2023-04-05T20:58:09;100297.69;;;2.70;58.24
41515;BME280;27247;48.020;16.720;2023-04-05T21:02:19;100292.50;;;2.68;58.35
41515;BME280;27247;48.020;16.720;2023-04-05T21:06:30;100298.91;;;2.77;58.17
41515;BME280;27247;48.020;16.720;2023-04-05T21:10:41;100296.03;;;2.80;58.11
41515;BME280;27247;48.020;16.720;2023-04-05T21:14:51;100294.59;;;2.76;57.84
41515;BME280;27247;48.020;16.720;2023-04-05T21:19:01;100288.75;;;2.60;58.35
41515;BME280;27247;48.020;16.720;2023-04-05T21:23:12;100292.88;;;2.40;59.03
41515;BME280;27247;48.020;16.720;2023-04-05T21:27:22;100294.84;;;2.25;59.58
41515;BME280;27247;48.020;16.720;2023-04-05T21:31:33;100293.31;;;2.10;60.21
41515;BME280;27247;48.020;16.720;2023-04-05T21:35:43;100293.50;;;2.07;60.27
41515;BME280;27247;48.020;16.720;2023-04-05T21:39:53;100299.59;;;2.07;60.63
41515;BME280;27247;48.020;16.720;2023-04-05T21:44:04;100288.34;;;2.05;60.97
41515;BME280;27247;48.020;16.720;2023-04-05T21:48:14;100293.41;;;2.08;60.75
41515;BME280;27247;48.020;16.720;2023-04-05T21:52:25;100282.75;;;2.10;60.66
41515;BME280;27247;48.020;16.720;2023-04-05T21:56:35;100292.25;;;2.12;60.28
41515;BME280;27247;48.020;16.720;2023-04-05T22:00:46;100295.66;;;2.26;59.99
41515;BME280;27247;48.020;16.720;2023-04-05T22:04:57;100285.28;;;2.11;60.13
41515;BME280;27247;48.020;16.720;2023-04-05T22:09:07;100288.16;;;1.96;61.20
41515;BME280;27247;48.020;16.720;2023-04-05T22:13:17;100292.81;;;1.79;61.39
41515;BME280;27247;48.020;16.720;2023-04-05T22:17:28;100291.28;;;1.64;62.29
41515;BME280;27247;48.020;16.720;2023-04-05T22:21:38;100299.41;;;1.48;62.23
41515;BME280;27247;48.020;16.720;2023-04-05T22:25:50;100287.28;;;1.46;62.48